createdAt,value
2019-04-16T00:00:26.040Z,13.93
2019-04-16T00:02:57.991Z,13.73
2019-04-16T00:05:28.459Z,13.33
2019-04-16T00:07:58.620Z,13.03
2019-04-16T00:10:41.109Z,13.37
2019-04-16T00:13:17.071Z,13.63
2019-04-16T00:15:45.635Z,13.53
2019-04-16T00:18:18.459Z,12.97
2019-04-16T00:20:46.829Z,14.10
2019-04-16T00:23:33.559Z,13.33
2019-04-16T00:26:02.124Z,12.80
2019-04-16T00:28:31.391Z,13.50
2019-04-16T00:31:00.060Z,14.70
2019-04-16T00:33:28.613Z,13.10
2019-04-16T00:35:58.115Z,13.23
2019-04-16T00:38:39.784Z,13.90
2019-04-16T00:41:00.772Z,13.40
2019-04-16T00:43:27.030Z,13.97
2019-04-16T00:45:55.649Z,13.40
2019-04-16T00:48:25.247Z,13.93
2019-04-16T00:50:53.762Z,13.00
2019-04-16T00:53:22.239Z,13.88
2019-04-16T00:55:50.792Z,12.40
2019-04-16T00:58:20.369Z,11.90
2019-04-16T01:00:48.883Z,11.97
2019-04-16T01:03:17.467Z,11.57
2019-04-16T01:05:45.995Z,10.63
2019-04-16T01:08:14.538Z,11.00
2019-04-16T01:10:43.007Z,10.70
2019-04-16T01:13:11.600Z,10.43
2019-04-16T01:15:40.166Z,11.30
2019-04-16T01:18:08.988Z,11.90
2019-04-16T01:20:40.338Z,11.73
2019-04-16T01:23:07.900Z,10.10
2019-04-16T01:25:36.459Z,11.53
2019-04-16T01:28:22.940Z,11.30
2019-04-16T01:30:53.824Z,10.98
2019-04-16T01:33:29.969Z,11.83
2019-04-16T01:36:03.947Z,11.65
2019-04-16T01:38:34.170Z,12.00
2019-04-16T01:41:04.806Z,11.63
2019-04-16T01:43:33.311Z,11.63
2019-04-16T01:46:02.463Z,11.03
2019-04-16T01:48:31.423Z,13.23
2019-04-16T01:51:00.019Z,12.23
2019-04-16T01:53:29.547Z,13.62
2019-04-16T01:55:58.396Z,13.15
2019-04-16T01:58:27.170Z,12.83
2019-04-16T02:00:55.816Z,13.30
2019-04-16T02:03:24.836Z,13.43
2019-04-16T02:05:54.903Z,14.63
2019-04-16T02:08:23.756Z,12.87
2019-04-16T02:10:52.547Z,12.90
2019-04-16T02:13:21.064Z,13.00
2019-04-16T02:15:50.643Z,12.10
2019-04-16T02:18:19.822Z,12.23
2019-04-16T02:20:48.402Z,12.30
2019-04-16T02:23:17.435Z,12.23
2019-04-16T02:25:48.407Z,11.67
2019-04-16T02:28:16.279Z,11.60
2019-04-16T02:30:44.885Z,11.60
2019-04-16T02:33:13.413Z,10.83
2019-04-16T02:35:42.004Z,10.43
2019-04-16T02:38:13.490Z,10.82
2019-04-16T02:40:40.814Z,11.33
2019-04-16T02:43:09.326Z,10.35
2019-04-16T02:45:37.890Z,10.40
2019-04-16T02:48:07.247Z,10.83
2019-04-16T02:50:43.254Z,10.27
2019-04-16T02:53:29.987Z,10.67
2019-04-16T02:56:06.147Z,10.73
2019-04-16T02:58:37.243Z,10.30
2019-04-16T03:01:07.468Z,10.33
2019-04-16T03:03:40.324Z,9.75
2019-04-16T03:06:08.872Z,9.70
2019-04-16T03:08:37.827Z,9.55
2019-04-16T03:11:06.652Z,9.97
2019-04-16T03:13:35.352Z,10.82
2019-04-16T03:16:06.549Z,10.10
2019-04-16T03:18:40.975Z,10.00
2019-04-16T03:21:09.509Z,10.57
2019-04-16T03:23:38.276Z,10.10
2019-04-16T03:26:06.988Z,10.03
2019-04-16T03:28:35.576Z,10.07
2019-04-16T03:31:08.093Z,10.27
2019-04-16T03:33:34.443Z,10.20
2019-04-16T03:36:03.164Z,10.00
2019-04-16T03:38:36.677Z,10.10
2019-04-16T03:41:02.298Z,8.60
2019-04-16T03:43:32.815Z,9.23
2019-04-16T03:46:01.158Z,9.40
2019-04-16T03:48:29.716Z,9.23
2019-04-16T03:51:00.573Z,9.30
2019-04-16T03:53:28.520Z,9.50
2019-04-16T03:55:58.375Z,8.37
2019-04-16T03:58:27.382Z,9.30
2019-04-16T04:00:55.989Z,9.90
2019-04-16T04:03:26.237Z,9.67
2019-04-16T04:05:55.977Z,9.83
2019-04-16T04:08:24.758Z,9.60
2019-04-16T04:10:53.637Z,10.13
2019-04-16T04:13:22.552Z,9.03
2019-04-16T04:15:51.165Z,9.53
2019-04-16T04:18:19.812Z,9.53
2019-04-16T04:20:50.742Z,9.73
2019-04-16T04:23:18.552Z,9.33
2019-04-16T04:25:47.091Z,9.87
2019-04-16T04:28:18.470Z,10.00
2019-04-16T04:30:48.581Z,9.90
2019-04-16T04:33:34.109Z,10.57
2019-04-16T04:36:03.262Z,10.18
2019-04-16T04:38:33.682Z,10.03
2019-04-16T04:41:02.087Z,10.15
2019-04-16T04:43:31.995Z,11.50
2019-04-16T04:46:00.995Z,11.33
2019-04-16T04:48:29.588Z,11.87
2019-04-16T04:50:58.347Z,12.07
2019-04-16T04:53:26.941Z,12.13
2019-04-16T04:55:57.203Z,12.80
2019-04-16T04:58:25.789Z,12.55
2019-04-16T05:00:54.335Z,12.57
2019-04-16T05:03:27.362Z,12.37
2019-04-16T05:05:57.523Z,12.70
2019-04-16T05:08:28.632Z,12.47
2019-04-16T05:10:59.798Z,13.03
2019-04-16T05:13:27.360Z,12.58
2019-04-16T05:15:58.394Z,13.90
2019-04-16T05:18:27.226Z,14.00
2019-04-16T05:20:55.813Z,13.57
2019-04-16T05:23:26.042Z,14.03
2019-04-16T05:25:54.793Z,13.80
2019-04-16T05:28:23.377Z,14.03
2019-04-16T05:30:52.561Z,13.75
2019-04-16T05:33:21.961Z,13.80
2019-04-16T05:35:50.654Z,13.50
2019-04-16T05:38:20.698Z,14.50
2019-04-16T05:40:50.160Z,15.03
2019-04-16T05:43:22.067Z,14.47
2019-04-16T05:45:49.025Z,14.47
2019-04-16T05:48:18.591Z,15.23
2019-04-16T05:50:48.157Z,14.70
2019-04-16T05:53:16.700Z,14.90
2019-04-16T05:55:57.418Z,14.33
2019-04-16T05:58:27.501Z,15.70
2019-04-16T06:01:00.604Z,14.65
2019-04-16T06:03:29.167Z,15.40
2019-04-16T06:05:59.393Z,16.37
2019-04-16T06:08:30.294Z,15.77
2019-04-16T06:10:58.850Z,15.10
2019-04-16T06:13:30.071Z,15.43
2019-04-16T06:16:23.934Z,15.55
2019-04-16T06:18:51.490Z,16.95
2019-04-16T06:21:25.043Z,16.37
2019-04-16T06:24:08.627Z,15.80
2019-04-16T06:26:54.345Z,16.56
2019-04-16T06:29:42.683Z,17.23
2019-04-16T06:32:15.948Z,17.55
2019-04-16T06:35:02.670Z,18.25
2019-04-16T06:37:32.927Z,17.12
2019-04-16T06:40:05.883Z,17.82
2019-04-16T06:42:38.441Z,17.45
2019-04-16T06:45:26.022Z,18.80
2019-04-16T06:47:56.853Z,18.10
2019-04-16T06:50:39.663Z,16.60
2019-04-16T06:53:19.891Z,18.65
2019-04-16T06:55:57.729Z,17.30
2019-04-16T06:58:28.392Z,17.77
2019-04-16T07:01:06.755Z,17.52
2019-04-16T07:03:42.393Z,18.10
2019-04-16T07:06:35.920Z,17.48
2019-04-16T07:09:05.522Z,16.75
2019-04-16T07:11:35.660Z,17.80
2019-04-16T07:14:05.427Z,17.27
2019-04-16T07:16:34.180Z,17.50
2019-04-16T07:19:03.745Z,17.27
2019-04-16T07:21:32.633Z,18.53
2019-04-16T07:24:01.299Z,17.40
2019-04-16T07:26:30.431Z,17.78
2019-04-16T07:29:09.412Z,17.75
2019-04-16T07:31:39.871Z,16.67
2019-04-16T07:34:12.491Z,16.40
2019-04-16T07:36:42.815Z,16.65
2019-04-16T07:39:28.841Z,17.00
2019-04-16T07:42:08.383Z,18.14
2019-04-16T07:44:45.051Z,19.07
2019-04-16T07:47:33.461Z,16.52
2019-04-16T07:50:19.677Z,18.00
2019-04-16T07:52:49.978Z,15.35
2019-04-16T07:55:32.122Z,16.05
2019-04-16T07:58:01.310Z,15.44
2019-04-16T08:00:29.859Z,16.20
2019-04-16T08:02:58.414Z,16.60
2019-04-16T08:05:28.047Z,17.82
2019-04-16T08:07:56.787Z,18.45
2019-04-16T08:10:25.505Z,18.13
2019-04-16T08:12:56.881Z,18.27
2019-04-16T08:15:26.016Z,19.73
2019-04-16T08:17:54.572Z,18.98
2019-04-16T08:20:23.429Z,18.27
2019-04-16T08:22:53.635Z,16.87
2019-04-16T08:25:33.703Z,16.52
2019-04-16T08:28:00.042Z,16.00
2019-04-16T08:30:31.525Z,16.40
2019-04-16T08:32:58.863Z,15.20
2019-04-16T08:35:27.412Z,15.33
2019-04-16T08:37:58.175Z,15.17
2019-04-16T08:40:26.230Z,15.53
2019-04-16T08:42:57.274Z,14.58
2019-04-16T08:45:25.027Z,14.60
2019-04-16T08:47:53.611Z,13.43
2019-04-16T08:50:25.837Z,15.08
2019-04-16T08:52:52.472Z,14.00
2019-04-16T08:55:23.626Z,14.90
2019-04-16T08:57:51.282Z,15.40
2019-04-16T09:00:20.025Z,14.53
2019-04-16T09:02:48.648Z,13.75
2019-04-16T09:05:17.242Z,12.78
2019-04-16T09:07:50.676Z,11.53
2019-04-16T09:10:21.701Z,11.70
2019-04-16T09:13:02.424Z,12.13
2019-04-16T09:15:20.744Z,12.65
2019-04-16T09:17:50.834Z,10.40
2019-04-16T09:20:23.052Z,10.80
2019-04-16T09:22:53.775Z,10.78
2019-04-16T09:25:23.136Z,11.68
2019-04-16T09:27:54.253Z,11.20
2019-04-16T09:30:40.713Z,10.80
2019-04-16T09:33:13.987Z,10.65
2019-04-16T09:35:49.745Z,10.30
2019-04-16T09:38:22.947Z,9.15
2019-04-16T09:41:02.240Z,8.33
2019-04-16T09:43:40.261Z,10.40
2019-04-16T09:46:10.469Z,10.40
2019-04-16T09:48:38.524Z,11.08
2019-04-16T09:51:07.037Z,11.37
2019-04-16T09:53:40.022Z,10.82
2019-04-16T09:56:28.209Z,11.12
2019-04-16T09:58:54.072Z,12.05
2019-04-16T10:01:24.450Z,11.33
2019-04-16T10:03:54.779Z,10.85
2019-04-16T10:06:23.343Z,12.43
2019-04-16T10:08:51.972Z,12.43
2019-04-16T10:11:20.588Z,11.75
2019-04-16T10:13:49.194Z,12.05
2019-04-16T10:16:19.513Z,11.60
2019-04-16T10:18:48.184Z,11.28
2019-04-16T10:21:20.128Z,10.75
2019-04-16T10:24:05.150Z,12.78
2019-04-16T10:26:33.733Z,12.03
2019-04-16T10:29:07.634Z,12.43
2019-04-16T10:31:36.264Z,12.00
2019-04-16T10:34:04.956Z,12.80
2019-04-16T10:36:37.138Z,13.15
2019-04-16T10:39:07.915Z,12.45
2019-04-16T10:41:43.985Z,12.23
2019-04-16T10:44:30.680Z,11.73
2019-04-16T10:47:19.921Z,11.23
2019-04-16T10:49:51.513Z,11.38
2019-04-16T10:52:30.544Z,10.82
2019-04-16T10:55:18.782Z,11.70
2019-04-16T10:57:55.185Z,12.80
2019-04-16T11:00:34.065Z,11.97
2019-04-16T11:03:06.927Z,11.18
2019-04-16T11:05:56.873Z,11.55
2019-04-16T11:08:23.406Z,10.88
2019-04-16T11:10:52.094Z,11.65
2019-04-16T11:13:28.327Z,11.33
2019-04-16T11:15:58.538Z,10.90
2019-04-16T11:18:27.137Z,54.48
2019-04-16T11:20:55.904Z,19.70
2019-04-16T11:23:25.334Z,12.78
2019-04-16T11:25:53.987Z,8.65
2019-04-16T11:28:22.572Z,10.43
2019-04-16T11:30:58.603Z,10.03
2019-04-16T11:33:27.929Z,10.43
2019-04-16T11:35:56.494Z,11.80
2019-04-16T11:38:25.132Z,11.30
2019-04-16T11:40:53.756Z,11.63
2019-04-16T11:43:22.334Z,11.63
2019-04-16T11:45:51.166Z,12.05
2019-04-16T11:48:19.717Z,11.45
2019-04-16T11:50:48.363Z,11.25
2019-04-16T11:53:16.915Z,10.80
2019-04-16T11:55:45.508Z,10.82
2019-04-16T11:58:32.331Z,11.13
2019-04-16T12:01:14.513Z,10.82
2019-04-16T12:03:47.720Z,12.15
2019-04-16T12:06:34.271Z,11.26
2019-04-16T12:09:13.911Z,10.90
2019-04-16T12:11:47.252Z,11.18
2019-04-16T12:14:29.581Z,12.40
2019-04-16T12:16:49.382Z,11.45
2019-04-16T12:19:25.144Z,11.63
2019-04-16T12:22:01.352Z,11.08
2019-04-16T12:24:48.034Z,14.75
2019-04-16T12:27:36.524Z,16.48
2019-04-16T12:30:25.479Z,11.35
2019-04-16T12:32:55.668Z,11.40
2019-04-16T12:35:45.338Z,12.05
2019-04-16T12:38:18.151Z,13.28
2019-04-16T12:41:01.848Z,12.50
2019-04-16T12:43:50.765Z,11.83
2019-04-16T12:46:36.649Z,13.58
2019-04-16T12:49:23.568Z,13.78
2019-04-16T12:51:53.679Z,13.47
2019-04-16T12:54:26.963Z,12.20
2019-04-16T12:56:57.197Z,12.07
2019-04-16T12:59:39.710Z,11.73
2019-04-16T13:02:27.035Z,11.83
2019-04-16T13:04:57.230Z,12.03
2019-04-16T13:07:39.443Z,12.15
2019-04-16T13:10:09.738Z,12.63
2019-04-16T13:12:54.787Z,11.80
2019-04-16T13:15:25.106Z,11.40
2019-04-16T13:17:55.350Z,11.43
2019-04-16T13:20:29.301Z,11.93
2019-04-16T13:22:57.533Z,11.55
2019-04-16T13:25:27.812Z,12.15
2019-04-16T13:27:56.430Z,11.90
2019-04-16T13:30:24.970Z,12.35
2019-04-16T13:32:53.563Z,12.00
2019-04-16T13:35:22.126Z,12.30
2019-04-16T13:37:50.675Z,10.68
2019-04-16T13:40:21.100Z,11.10
2019-04-16T13:42:50.439Z,11.18
2019-04-16T13:45:26.154Z,11.03
2019-04-16T13:47:55.692Z,10.95
2019-04-16T13:50:25.665Z,10.38
2019-04-16T13:52:55.984Z,10.25
2019-04-16T13:55:29.202Z,10.98
2019-04-16T13:58:14.756Z,10.98
2019-04-16T14:00:51.105Z,10.68
2019-04-16T14:03:23.974Z,11.00
2019-04-16T14:05:51.607Z,10.30
2019-04-16T14:08:20.185Z,10.60
2019-04-16T14:10:48.745Z,11.28
2019-04-16T14:13:18.259Z,10.28
2019-04-16T14:15:46.925Z,10.08
2019-04-16T14:18:15.575Z,9.83
2019-04-16T14:20:44.118Z,11.08
2019-04-16T14:23:12.742Z,10.43
2019-04-16T14:25:41.318Z,10.15
2019-04-16T14:28:09.883Z,10.03
2019-04-16T14:30:42.718Z,9.73
2019-04-16T14:33:12.008Z,9.93
2019-04-16T14:35:41.268Z,10.60
2019-04-16T14:38:09.863Z,10.50
2019-04-16T14:40:39.709Z,9.38
2019-04-16T14:43:09.046Z,9.63
2019-04-16T14:45:57.077Z,9.30
2019-04-16T14:48:10.184Z,9.18
2019-04-16T14:50:39.054Z,8.63
2019-04-16T14:53:10.797Z,9.00
2019-04-16T14:55:59.080Z,8.85
2019-04-16T14:58:37.014Z,9.98
2019-04-16T15:01:25.721Z,9.13
2019-04-16T15:04:01.980Z,9.20
2019-04-16T15:06:32.175Z,9.60
2019-04-16T15:09:11.486Z,9.18
2019-04-16T15:12:01.572Z,8.98
2019-04-16T15:14:29.772Z,8.38
2019-04-16T15:17:12.201Z,9.23
2019-04-16T15:19:43.712Z,8.30
2019-04-16T15:22:19.357Z,8.58
2019-04-16T15:24:52.090Z,9.35
2019-04-16T15:27:38.358Z,8.18
2019-04-16T15:30:12.854Z,8.50
2019-04-16T15:32:43.058Z,8.23
2019-04-16T15:35:16.027Z,9.33
2019-04-16T15:37:59.254Z,8.50
2019-04-16T15:40:39.157Z,7.90
2019-04-16T15:43:22.900Z,8.57
2019-04-16T15:46:24.827Z,8.10
2019-04-16T15:48:40.786Z,8.28
2019-04-16T15:51:20.016Z,8.08
2019-04-16T15:53:50.582Z,7.67
2019-04-16T15:56:23.845Z,7.65
2019-04-16T15:58:54.056Z,11.45
2019-04-16T16:01:30.364Z,8.05
2019-04-16T16:04:00.575Z,7.28
2019-04-16T16:06:33.448Z,6.67
2019-04-16T16:09:07.912Z,6.95
2019-04-16T16:11:38.597Z,7.30
2019-04-16T16:14:07.138Z,7.33
2019-04-16T16:16:41.967Z,6.93
2019-04-16T16:19:10.962Z,6.33
2019-04-16T16:21:36.178Z,6.12
2019-04-16T16:24:07.969Z,7.30
2019-04-16T16:26:35.013Z,9.10
2019-04-16T16:29:03.581Z,12.88
2019-04-16T16:31:35.601Z,12.53
2019-04-16T16:34:03.342Z,7.65
2019-04-16T16:36:31.904Z,9.90
2019-04-16T16:39:00.493Z,9.30
2019-04-16T16:41:29.157Z,8.25
2019-04-16T16:43:57.646Z,9.63
2019-04-16T16:46:27.930Z,9.08
2019-04-16T16:48:56.493Z,9.30
2019-04-16T16:51:25.120Z,8.10
2019-04-16T16:53:58.780Z,8.43
2019-04-16T16:56:47.293Z,7.92
2019-04-16T16:59:32.422Z,6.85
2019-04-16T17:02:15.137Z,6.46
2019-04-16T17:04:45.412Z,6.92
2019-04-16T17:07:17.501Z,8.85
2019-04-16T17:09:44.560Z,8.20
2019-04-16T17:12:14.239Z,8.28
2019-04-16T17:14:42.850Z,10.18
2019-04-16T17:17:14.744Z,11.73
2019-04-16T17:19:41.792Z,11.40
2019-04-16T17:22:10.511Z,10.65
2019-04-16T17:24:39.455Z,10.63
2019-04-16T17:27:08.063Z,9.75
2019-04-16T17:29:36.683Z,9.08
2019-04-16T17:32:05.300Z,7.97
2019-04-16T17:34:38.820Z,7.62
2019-04-16T17:37:04.540Z,8.18
2019-04-16T17:39:42.320Z,8.33
2019-04-16T17:42:09.575Z,9.08
2019-04-16T17:44:39.973Z,10.90
2019-04-16T17:50:08.382Z,7.42
2019-04-16T17:52:47.519Z,8.30
2019-04-16T17:55:17.786Z,9.28
2019-04-16T17:57:59.859Z,7.35
2019-04-16T18:00:46.424Z,8.18
2019-04-16T18:03:37.052Z,7.28
2019-04-16T18:06:05.855Z,7.10
2019-04-16T18:08:51.193Z,7.12
2019-04-16T18:11:41.026Z,7.03
2019-04-16T18:14:11.706Z,7.08
2019-04-16T18:16:42.026Z,6.58
2019-04-16T18:19:14.756Z,7.55
2019-04-16T18:21:47.642Z,6.90
2019-04-16T18:24:34.270Z,6.55
2019-04-16T18:27:07.509Z,7.75
2019-04-16T18:29:54.202Z,7.20
2019-04-16T18:32:31.199Z,7.72
2019-04-16T18:35:07.638Z,7.80
2019-04-16T18:37:40.602Z,8.43
2019-04-16T18:40:19.737Z,7.20
2019-04-16T18:42:52.895Z,6.63
2019-04-16T18:45:39.420Z,7.10
2019-04-16T18:48:15.302Z,7.45
2019-04-16T18:50:43.864Z,6.95
2019-04-16T18:53:12.517Z,6.62
2019-04-16T18:55:41.070Z,6.87
2019-04-16T18:58:09.704Z,6.78
2019-04-16T19:00:43.038Z,6.87
2019-04-16T19:03:14.965Z,7.78
2019-04-16T19:05:42.757Z,7.47
2019-04-16T19:08:11.562Z,7.85
2019-04-16T19:10:40.175Z,7.78
2019-04-16T19:13:11.207Z,7.35
2019-04-16T19:15:39.143Z,7.30
2019-04-16T19:18:18.906Z,7.45
2019-04-16T19:20:39.512Z,7.90
2019-04-16T19:23:09.775Z,7.42
2019-04-16T19:25:39.007Z,7.37
2019-04-16T19:28:07.606Z,7.83
2019-04-16T19:30:36.394Z,7.60
2019-04-16T19:33:06.693Z,7.67
2019-04-16T19:35:35.277Z,8.30
2019-04-16T19:38:06.444Z,8.03
2019-04-16T19:40:34.725Z,7.80
2019-04-16T19:43:03.635Z,8.18
2019-04-16T19:45:32.498Z,8.70
2019-04-16T19:48:02.148Z,8.30
2019-04-16T19:50:36.121Z,8.48
2019-04-16T19:53:01.318Z,8.40
2019-04-16T19:55:31.431Z,9.10
2019-04-16T19:58:00.058Z,8.60
2019-04-16T20:00:28.657Z,8.83
2019-04-16T20:02:57.300Z,8.58
2019-04-16T20:05:28.805Z,8.85
2019-04-16T20:07:58.879Z,9.25
2019-04-16T20:10:27.580Z,9.07
2019-04-16T20:12:57.879Z,8.85
2019-04-16T20:15:26.502Z,8.63
2019-04-16T20:17:55.124Z,8.85
2019-04-16T20:20:23.773Z,8.28
2019-04-16T20:22:52.964Z,8.70
2019-04-16T20:25:21.530Z,9.70
2019-04-16T20:27:50.190Z,9.68
2019-04-16T20:30:24.318Z,9.93
2019-04-16T20:32:50.634Z,10.77
2019-04-16T20:35:19.323Z,9.70
2019-04-16T20:37:50.503Z,10.20
2019-04-16T20:40:18.729Z,12.43
2019-04-16T20:42:47.417Z,12.55
2019-04-16T20:45:16.088Z,11.83
2019-04-16T20:47:45.319Z,12.30
2019-04-16T20:50:13.942Z,12.67
2019-04-16T20:52:42.538Z,12.20
2019-04-16T20:55:15.761Z,12.37
2019-04-16T20:57:41.771Z,12.00
2019-04-16T21:00:12.272Z,12.68
2019-04-16T21:02:40.827Z,12.13
2019-04-16T21:05:21.913Z,12.00
2019-04-16T21:07:40.204Z,11.57
2019-04-16T21:10:10.569Z,11.25
2019-04-16T21:12:39.119Z,11.07
2019-04-16T21:15:09.440Z,10.70
2019-04-16T21:17:39.100Z,11.80
2019-04-16T21:20:08.193Z,10.43
2019-04-16T21:22:36.786Z,10.75
2019-04-16T21:25:06.592Z,10.93
2019-04-16T21:27:36.770Z,10.13
2019-04-16T21:30:12.152Z,10.13
2019-04-16T21:32:45.548Z,10.20
2019-04-16T21:35:22.149Z,10.23
2019-04-16T21:37:52.376Z,10.93
2019-04-16T21:40:23.392Z,10.63
2019-04-16T21:42:51.317Z,10.67
2019-04-16T21:45:20.072Z,10.67
2019-04-16T21:47:48.625Z,10.43
2019-04-16T21:50:17.234Z,11.70
2019-04-16T21:52:45.820Z,11.93
2019-04-16T21:55:14.560Z,11.27
2019-04-16T21:57:46.055Z,12.10
2019-04-16T22:00:32.124Z,11.80
2019-04-16T22:03:02.687Z,11.90
2019-04-16T22:05:31.297Z,11.20
2019-04-16T22:07:59.804Z,11.20
2019-04-16T22:10:28.417Z,10.93
2019-04-16T22:12:57.057Z,12.97
2019-04-16T22:15:26.387Z,11.95
2019-04-16T22:17:54.985Z,12.47
2019-04-16T22:20:23.527Z,13.18
2019-04-16T22:22:52.109Z,12.20
2019-04-16T22:25:23.703Z,11.95
2019-04-16T22:27:51.582Z,12.30
2019-04-16T22:30:20.246Z,12.03
2019-04-16T22:32:48.855Z,12.70
2019-04-16T22:35:17.335Z,12.80
2019-04-16T22:37:45.912Z,13.00
2019-04-16T22:40:31.447Z,12.90
2019-04-16T22:43:16.380Z,12.53
2019-04-16T22:45:52.550Z,12.97
2019-04-16T22:48:21.099Z,14.43
2019-04-16T22:50:49.607Z,14.37
2019-04-16T22:53:18.114Z,13.70
2019-04-16T22:55:46.657Z,14.17
2019-04-16T22:58:25.135Z,14.97
2019-04-16T23:00:55.403Z,14.13
2019-04-16T23:03:23.942Z,14.07
2019-04-16T23:05:52.451Z,14.37
2019-04-16T23:08:21.074Z,13.28
2019-04-16T23:10:51.961Z,13.60
2019-04-16T23:13:20.089Z,13.35
2019-04-16T23:15:48.565Z,13.33
2019-04-16T23:18:18.179Z,13.00
2019-04-16T23:20:47.755Z,13.17
2019-04-16T23:23:19.099Z,13.20
2019-04-16T23:25:47.454Z,14.17
2019-04-16T23:28:16.026Z,13.77
2019-04-16T23:30:44.595Z,13.73
2019-04-16T23:33:13.134Z,12.87
2019-04-16T23:35:44.297Z,13.05
2019-04-16T23:38:11.910Z,13.43
2019-04-16T23:40:40.819Z,12.70
2019-04-16T23:43:21.918Z,12.43
2019-04-16T23:46:01.709Z,12.73
2019-04-16T23:48:31.400Z,13.60
2019-04-16T23:51:01.668Z,11.85
2019-04-16T23:53:38.172Z,12.67
2019-04-16T23:56:06.789Z,13.27
2019-04-16T23:58:37.030Z,12.40
